sensor_id;sensor_type;location;lat;lon;timestamp;P1;durP1;ratioP1;P2;durP2;ratioP2
48805;SDS011;34625;47.176;27.548;2022-09-09T00:00:32;16.15;;;6.75;;
48805;SDS011;34625;47.176;27.548;2022-09-09T00:08:39;13.43;;;6.32;;
48805;SDS011;34625;47.176;27.548;2022-09-09T00:11:26;15.18;;;6.50;;
48805;SDS011;34625;47.176;27.548;2022-09-09T00:13:56;13.13;;;6.45;;
48805;SDS011;34625;47.176;27.548;2022-09-09T00:16:30;10.35;;;6.07;;
48805;SDS011;34625;47.176;27.548;2022-09-09T00:21:34;9.90;;;6.07;;
48805;SDS011;34625;47.176;27.548;2022-09-09T00:24:09;15.50;;;5.72;;
48805;SDS011;34625;47.176;27.548;2022-09-09T00:31:57;8.43;;;5.13;;
48805;SDS011;34625;47.176;27.548;2022-09-09T00:34:30;10.50;;;6.15;;
48805;SDS011;34625;47.176;27.548;2022-09-09T00:36:57;8.38;;;5.90;;
48805;SDS011;34625;47.176;27.548;2022-09-09T00:39:34;17.25;;;6.25;;
48805;SDS011;34625;47.176;27.548;2022-09-09T00:42:23;9.40;;;5.28;;
48805;SDS011;34625;47.176;27.548;2022-09-09T00:45:01;7.38;;;5.18;;
48805;SDS011;34625;47.176;27.548;2022-09-09T00:47:53;10.90;;;5.47;;
48805;SDS011;34625;47.176;27.548;2022-09-09T00:56:28;7.55;;;5.22;;
48805;SDS011;34625;47.176;27.548;2022-09-09T00:59:12;7.82;;;5.15;;
48805;SDS011;34625;47.176;27.548;2022-09-09T01:01:53;9.00;;;5.10;;
48805;SDS011;34625;47.176;27.548;2022-09-09T01:04:23;10.88;;;5.70;;
48805;SDS011;34625;47.176;27.548;2022-09-09T01:06:56;13.52;;;5.43;;
48805;SDS011;34625;47.176;27.548;2022-09-09T01:09:32;6.85;;;5.32;;
48805;SDS011;34625;47.176;27.548;2022-09-09T01:12:23;10.65;;;5.22;;
48805;SDS011;34625;47.176;27.548;2022-09-09T01:20:25;8.73;;;5.15;;
48805;SDS011;34625;47.176;27.548;2022-09-09T01:29:04;8.43;;;6.30;;
48805;SDS011;34625;47.176;27.548;2022-09-09T01:31:51;10.35;;;5.38;;
48805;SDS011;34625;47.176;27.548;2022-09-09T01:34:23;8.27;;;5.25;;
48805;SDS011;34625;47.176;27.548;2022-09-09T01:37:04;8.13;;;5.43;;
48805;SDS011;34625;47.176;27.548;2022-09-09T01:39:35;9.57;;;5.53;;
48805;SDS011;34625;47.176;27.548;2022-09-09T01:42:08;9.27;;;5.68;;
48805;SDS011;34625;47.176;27.548;2022-09-09T01:44:36;8.30;;;5.32;;
48805;SDS011;34625;47.176;27.548;2022-09-09T01:47:04;8.18;;;4.55;;
48805;SDS011;34625;47.176;27.548;2022-09-09T01:49:32;9.35;;;5.47;;
48805;SDS011;34625;47.176;27.548;2022-09-09T01:52:03;10.77;;;5.35;;
48805;SDS011;34625;47.176;27.548;2022-09-09T01:54:34;9.60;;;4.90;;
48805;SDS011;34625;47.176;27.548;2022-09-09T02:05:06;8.55;;;5.25;;
48805;SDS011;34625;47.176;27.548;2022-09-09T02:07:57;7.38;;;5.18;;
48805;SDS011;34625;47.176;27.548;2022-09-09T02:10:50;8.20;;;5.18;;
48805;SDS011;34625;47.176;27.548;2022-09-09T02:13:38;12.32;;;4.65;;
48805;SDS011;34625;47.176;27.548;2022-09-09T02:16:11;11.15;;;4.75;;
48805;SDS011;34625;47.176;27.548;2022-09-09T02:19:00;6.57;;;5.45;;
48805;SDS011;34625;47.176;27.548;2022-09-09T02:22:16;12.93;;;4.88;;
48805;SDS011;34625;47.176;27.548;2022-09-09T02:24:45;9.88;;;4.88;;
48805;SDS011;34625;47.176;27.548;2022-09-09T02:27:20;11.27;;;4.47;;
48805;SDS011;34625;47.176;27.548;2022-09-09T02:29:49;11.43;;;5.40;;
48805;SDS011;34625;47.176;27.548;2022-09-09T02:32:22;6.13;;;4.32;;
48805;SDS011;34625;47.176;27.548;2022-09-09T02:35:03;7.03;;;4.05;;
48805;SDS011;34625;47.176;27.548;2022-09-09T02:37:35;7.25;;;3.92;;
48805;SDS011;34625;47.176;27.548;2022-09-09T02:40:04;6.85;;;3.78;;
48805;SDS011;34625;47.176;27.548;2022-09-09T02:42:43;4.53;;;4.07;;
48805;SDS011;34625;47.176;27.548;2022-09-09T02:45:11;7.43;;;3.90;;
48805;SDS011;34625;47.176;27.548;2022-09-09T02:47:53;4.57;;;4.00;;
48805;SDS011;34625;47.176;27.548;2022-09-09T02:50:35;5.65;;;4.50;;
48805;SDS011;34625;47.176;27.548;2022-09-09T02:53:24;7.07;;;4.45;;
48805;SDS011;34625;47.176;27.548;2022-09-09T02:56:04;6.18;;;4.38;;
48805;SDS011;34625;47.176;27.548;2022-09-09T02:58:38;5.63;;;4.03;;
48805;SDS011;34625;47.176;27.548;2022-09-09T03:01:05;10.20;;;4.60;;
48805;SDS011;34625;47.176;27.548;2022-09-09T03:03:31;5.93;;;4.25;;
48805;SDS011;34625;47.176;27.548;2022-09-09T03:06:01;5.43;;;4.22;;
48805;SDS011;34625;47.176;27.548;2022-09-09T03:08:27;10.13;;;4.28;;
48805;SDS011;34625;47.176;27.548;2022-09-09T03:10:55;10.85;;;5.18;;
48805;SDS011;34625;47.176;27.548;2022-09-09T03:13:25;7.97;;;4.82;;
48805;SDS011;34625;47.176;27.548;2022-09-09T03:15:51;8.82;;;5.25;;
48805;SDS011;34625;47.176;27.548;2022-09-09T03:18:19;7.05;;;5.10;;
48805;SDS011;34625;47.176;27.548;2022-09-09T03:20:49;8.52;;;4.53;;
48805;SDS011;34625;47.176;27.548;2022-09-09T03:23:17;7.38;;;4.22;;
48805;SDS011;34625;47.176;27.548;2022-09-09T03:25:48;10.02;;;4.35;;
48805;SDS011;34625;47.176;27.548;2022-09-09T03:28:26;7.43;;;4.82;;
48805;SDS011;34625;47.176;27.548;2022-09-09T03:31:04;9.60;;;4.45;;
48805;SDS011;34625;47.176;27.548;2022-09-09T03:33:36;14.20;;;4.60;;
48805;SDS011;34625;47.176;27.548;2022-09-09T03:36:03;6.35;;;4.75;;
48805;SDS011;34625;47.176;27.548;2022-09-09T03:38:29;5.72;;;3.92;;
48805;SDS011;34625;47.176;27.548;2022-09-09T03:40:57;10.18;;;4.68;;
48805;SDS011;34625;47.176;27.548;2022-09-09T03:43:26;12.00;;;4.57;;
48805;SDS011;34625;47.176;27.548;2022-09-09T03:45:53;6.88;;;4.50;;
48805;SDS011;34625;47.176;27.548;2022-09-09T03:48:24;5.55;;;4.20;;
48805;SDS011;34625;47.176;27.548;2022-09-09T03:50:53;10.90;;;4.82;;
48805;SDS011;34625;47.176;27.548;2022-09-09T03:53:20;6.88;;;3.85;;
48805;SDS011;34625;47.176;27.548;2022-09-09T03:55:49;7.80;;;3.88;;
48805;SDS011;34625;47.176;27.548;2022-09-09T03:58:21;5.72;;;3.47;;
48805;SDS011;34625;47.176;27.548;2022-09-09T04:03:25;6.13;;;3.88;;
48805;SDS011;34625;47.176;27.548;2022-09-09T04:05:52;7.85;;;4.28;;
48805;SDS011;34625;47.176;27.548;2022-09-09T04:08:20;7.18;;;4.00;;
48805;SDS011;34625;47.176;27.548;2022-09-09T04:10:47;6.55;;;4.07;;
48805;SDS011;34625;47.176;27.548;2022-09-09T04:13:16;5.60;;;4.10;;
48805;SDS011;34625;47.176;27.548;2022-09-09T04:15:44;7.25;;;4.10;;
48805;SDS011;34625;47.176;27.548;2022-09-09T04:18:25;6.57;;;4.30;;
48805;SDS011;34625;47.176;27.548;2022-09-09T04:20:53;5.07;;;3.78;;
48805;SDS011;34625;47.176;27.548;2022-09-09T04:23:25;8.65;;;5.70;;
48805;SDS011;34625;47.176;27.548;2022-09-09T04:25:55;10.57;;;4.22;;
48805;SDS011;34625;47.176;27.548;2022-09-09T04:28:24;6.97;;;3.90;;
48805;SDS011;34625;47.176;27.548;2022-09-09T04:30:51;7.25;;;3.85;;
48805;SDS011;34625;47.176;27.548;2022-09-09T04:33:18;8.40;;;3.85;;
48805;SDS011;34625;47.176;27.548;2022-09-09T04:35:48;7.18;;;3.90;;
48805;SDS011;34625;47.176;27.548;2022-09-09T04:38:17;6.75;;;3.85;;
48805;SDS011;34625;47.176;27.548;2022-09-09T04:40:47;5.18;;;4.53;;
48805;SDS011;34625;47.176;27.548;2022-09-09T04:43:14;5.30;;;3.65;;
48805;SDS011;34625;47.176;27.548;2022-09-09T04:45:42;4.68;;;3.88;;
48805;SDS011;34625;47.176;27.548;2022-09-09T04:48:12;5.55;;;4.22;;
48805;SDS011;34625;47.176;27.548;2022-09-09T04:50:38;9.15;;;4.30;;
48805;SDS011;34625;47.176;27.548;2022-09-09T04:53:06;5.47;;;4.05;;
48805;SDS011;34625;47.176;27.548;2022-09-09T04:55:35;2.65;;;1.90;;
48805;SDS011;34625;47.176;27.548;2022-09-09T04:58:05;1.85;;;1.75;;
48805;SDS011;34625;47.176;27.548;2022-09-09T05:00:32;4.88;;;3.13;;
48805;SDS011;34625;47.176;27.548;2022-09-09T05:03:05;2.25;;;2.05;;
48805;SDS011;34625;47.176;27.548;2022-09-09T05:05:31;2.92;;;1.40;;
48805;SDS011;34625;47.176;27.548;2022-09-09T05:08:05;5.70;;;2.60;;
48805;SDS011;34625;47.176;27.548;2022-09-09T05:10:33;10.93;;;2.67;;
48805;SDS011;34625;47.176;27.548;2022-09-09T05:13:00;3.28;;;2.90;;
48805;SDS011;34625;47.176;27.548;2022-09-09T05:15:28;3.35;;;2.78;;
48805;SDS011;34625;47.176;27.548;2022-09-09T05:17:58;3.92;;;2.95;;
48805;SDS011;34625;47.176;27.548;2022-09-09T05:20:27;4.22;;;2.60;;
48805;SDS011;34625;47.176;27.548;2022-09-09T05:22:54;3.88;;;3.30;;
48805;SDS011;34625;47.176;27.548;2022-09-09T05:25:23;5.03;;;3.15;;
48805;SDS011;34625;47.176;27.548;2022-09-09T05:27:53;2.63;;;2.42;;
48805;SDS011;34625;47.176;27.548;2022-09-09T05:30:20;4.47;;;2.67;;
48805;SDS011;34625;47.176;27.548;2022-09-09T05:32:50;4.82;;;3.83;;
48805;SDS011;34625;47.176;27.548;2022-09-09T05:35:17;8.68;;;4.53;;
48805;SDS011;34625;47.176;27.548;2022-09-09T05:37:44;4.43;;;3.63;;
48805;SDS011;34625;47.176;27.548;2022-09-09T05:40:11;5.75;;;3.58;;
48805;SDS011;34625;47.176;27.548;2022-09-09T05:42:38;9.95;;;4.60;;
48805;SDS011;34625;47.176;27.548;2022-09-09T05:45:06;7.22;;;3.97;;
48805;SDS011;34625;47.176;27.548;2022-09-09T05:47:33;7.72;;;4.55;;
48805;SDS011;34625;47.176;27.548;2022-09-09T05:50:01;3.83;;;3.45;;
48805;SDS011;34625;47.176;27.548;2022-09-09T05:52:27;4.15;;;3.53;;
48805;SDS011;34625;47.176;27.548;2022-09-09T05:54:55;6.50;;;3.97;;
48805;SDS011;34625;47.176;27.548;2022-09-09T05:57:22;7.55;;;3.60;;
48805;SDS011;34625;47.176;27.548;2022-09-09T05:59:49;5.72;;;3.83;;
48805;SDS011;34625;47.176;27.548;2022-09-09T06:02:15;4.53;;;3.45;;
48805;SDS011;34625;47.176;27.548;2022-09-09T06:04:41;3.95;;;3.05;;
48805;SDS011;34625;47.176;27.548;2022-09-09T06:07:07;6.72;;;3.65;;
48805;SDS011;34625;47.176;27.548;2022-09-09T06:09:34;5.95;;;4.20;;
48805;SDS011;34625;47.176;27.548;2022-09-09T06:12:00;4.63;;;3.70;;
48805;SDS011;34625;47.176;27.548;2022-09-09T06:14:29;6.32;;;4.13;;
48805;SDS011;34625;47.176;27.548;2022-09-09T06:16:58;8.02;;;4.20;;
48805;SDS011;34625;47.176;27.548;2022-09-09T06:19:28;5.20;;;3.95;;
48805;SDS011;34625;47.176;27.548;2022-09-09T06:21:57;6.40;;;4.00;;
48805;SDS011;34625;47.176;27.548;2022-09-09T06:24:24;7.47;;;3.28;;
48805;SDS011;34625;47.176;27.548;2022-09-09T06:26:50;8.60;;;4.05;;
48805;SDS011;34625;47.176;27.548;2022-09-09T06:29:20;6.15;;;3.75;;
48805;SDS011;34625;47.176;27.548;2022-09-09T06:31:46;6.22;;;4.10;;
48805;SDS011;34625;47.176;27.548;2022-09-09T06:34:18;6.95;;;4.10;;
48805;SDS011;34625;47.176;27.548;2022-09-09T06:36:48;8.93;;;3.50;;
48805;SDS011;34625;47.176;27.548;2022-09-09T06:39:34;9.07;;;4.20;;
48805;SDS011;34625;47.176;27.548;2022-09-09T06:42:00;5.60;;;3.25;;
48805;SDS011;34625;47.176;27.548;2022-09-09T06:45:02;11.38;;;3.88;;
48805;SDS011;34625;47.176;27.548;2022-09-09T06:47:47;3.35;;;3.05;;
48805;SDS011;34625;47.176;27.548;2022-09-09T06:50:13;7.00;;;3.28;;
48805;SDS011;34625;47.176;27.548;2022-09-09T06:52:40;4.97;;;3.25;;
48805;SDS011;34625;47.176;27.548;2022-09-09T06:55:08;6.57;;;3.25;;
48805;SDS011;34625;47.176;27.548;2022-09-09T06:57:35;13.23;;;3.60;;
48805;SDS011;34625;47.176;27.548;2022-09-09T07:00:01;5.00;;;3.40;;
48805;SDS011;34625;47.176;27.548;2022-09-09T07:02:28;9.48;;;3.42;;
48805;SDS011;34625;47.176;27.548;2022-09-09T07:04:57;6.60;;;3.47;;
48805;SDS011;34625;47.176;27.548;2022-09-09T07:07:24;5.03;;;3.00;;
48805;SDS011;34625;47.176;27.548;2022-09-09T07:09:51;8.75;;;3.80;;
48805;SDS011;34625;47.176;27.548;2022-09-09T07:12:17;5.25;;;3.28;;
48805;SDS011;34625;47.176;27.548;2022-09-09T07:14:51;5.40;;;3.38;;
48805;SDS011;34625;47.176;27.548;2022-09-09T07:17:17;6.28;;;3.47;;
48805;SDS011;34625;47.176;27.548;2022-09-09T07:19:43;7.72;;;3.20;;
48805;SDS011;34625;47.176;27.548;2022-09-09T07:22:09;6.05;;;3.30;;
48805;SDS011;34625;47.176;27.548;2022-09-09T07:24:36;5.38;;;2.92;;
48805;SDS011;34625;47.176;27.548;2022-09-09T07:27:02;5.25;;;3.17;;
48805;SDS011;34625;47.176;27.548;2022-09-09T07:29:28;7.30;;;3.20;;
48805;SDS011;34625;47.176;27.548;2022-09-09T07:31:55;3.88;;;2.65;;
48805;SDS011;34625;47.176;27.548;2022-09-09T07:34:27;4.30;;;3.17;;
48805;SDS011;34625;47.176;27.548;2022-09-09T07:36:55;4.38;;;3.10;;
48805;SDS011;34625;47.176;27.548;2022-09-09T07:39:23;6.45;;;2.92;;
48805;SDS011;34625;47.176;27.548;2022-09-09T07:41:52;5.28;;;3.53;;
48805;SDS011;34625;47.176;27.548;2022-09-09T07:44:22;5.70;;;3.45;;
48805;SDS011;34625;47.176;27.548;2022-09-09T07:46:58;5.55;;;3.45;;
48805;SDS011;34625;47.176;27.548;2022-09-09T07:49:31;3.65;;;3.35;;
48805;SDS011;34625;47.176;27.548;2022-09-09T07:51:58;5.68;;;3.33;;
48805;SDS011;34625;47.176;27.548;2022-09-09T07:54:24;6.78;;;4.00;;
48805;SDS011;34625;47.176;27.548;2022-09-09T07:56:52;5.32;;;3.47;;
48805;SDS011;34625;47.176;27.548;2022-09-09T07:59:20;4.13;;;3.47;;
48805;SDS011;34625;47.176;27.548;2022-09-09T08:01:50;6.90;;;4.13;;
48805;SDS011;34625;47.176;27.548;2022-09-09T08:04:23;14.93;;;3.85;;
48805;SDS011;34625;47.176;27.548;2022-09-09T08:06:52;9.13;;;3.35;;
48805;SDS011;34625;47.176;27.548;2022-09-09T08:09:22;7.55;;;3.65;;
48805;SDS011;34625;47.176;27.548;2022-09-09T08:12:00;9.48;;;4.00;;
48805;SDS011;34625;47.176;27.548;2022-09-09T08:14:28;5.93;;;3.75;;
48805;SDS011;34625;47.176;27.548;2022-09-09T08:16:56;8.95;;;3.88;;
48805;SDS011;34625;47.176;27.548;2022-09-09T08:19:25;8.77;;;3.40;;
48805;SDS011;34625;47.176;27.548;2022-09-09T08:21:52;6.15;;;3.55;;
48805;SDS011;34625;47.176;27.548;2022-09-09T08:24:19;5.32;;;3.35;;
48805;SDS011;34625;47.176;27.548;2022-09-09T08:26:48;5.22;;;3.60;;
48805;SDS011;34625;47.176;27.548;2022-09-09T08:29:17;5.05;;;3.67;;
48805;SDS011;34625;47.176;27.548;2022-09-09T08:31:53;4.65;;;3.03;;
48805;SDS011;34625;47.176;27.548;2022-09-09T08:34:23;5.25;;;3.03;;
48805;SDS011;34625;47.176;27.548;2022-09-09T08:36:52;3.25;;;2.80;;
48805;SDS011;34625;47.176;27.548;2022-09-09T08:39:22;5.15;;;2.92;;
48805;SDS011;34625;47.176;27.548;2022-09-09T08:55:49;6.50;;;3.05;;
48805;SDS011;34625;47.176;27.548;2022-09-09T08:59:02;1.88;;;1.30;;
48805;SDS011;34625;47.176;27.548;2022-09-09T09:10:39;3.90;;;2.78;;
48805;SDS011;34625;47.176;27.548;2022-09-09T09:13:20;5.03;;;2.05;;
48805;SDS011;34625;47.176;27.548;2022-09-09T09:16:02;1.00;;;1.00;;
48805;SDS011;34625;47.176;27.548;2022-09-09T09:18:43;3.05;;;1.20;;
48805;SDS011;34625;47.176;27.548;2022-09-09T09:23:57;6.28;;;2.30;;
48805;SDS011;34625;47.176;27.548;2022-09-09T09:26:35;9.75;;;3.25;;
48805;SDS011;34625;47.176;27.548;2022-09-09T09:29:13;3.50;;;2.97;;
48805;SDS011;34625;47.176;27.548;2022-09-09T09:31:50;10.02;;;4.13;;
48805;SDS011;34625;47.176;27.548;2022-09-09T09:34:20;3.10;;;2.80;;
48805;SDS011;34625;47.176;27.548;2022-09-09T09:36:58;4.80;;;2.88;;
48805;SDS011;34625;47.176;27.548;2022-09-09T09:39:32;3.53;;;2.72;;
48805;SDS011;34625;47.176;27.548;2022-09-09T09:42:10;9.60;;;3.30;;
48805;SDS011;34625;47.176;27.548;2022-09-09T09:44:43;6.82;;;3.10;;
48805;SDS011;34625;47.176;27.548;2022-09-09T09:47:19;11.27;;;2.80;;
48805;SDS011;34625;47.176;27.548;2022-09-09T09:49:58;2.22;;;1.85;;
48805;SDS011;34625;47.176;27.548;2022-09-09T09:52:29;4.68;;;2.60;;
48805;SDS011;34625;47.176;27.548;2022-09-09T09:55:02;4.70;;;2.67;;
48805;SDS011;34625;47.176;27.548;2022-09-09T09:57:30;3.42;;;2.40;;
48805;SDS011;34625;47.176;27.548;2022-09-09T10:02:47;4.18;;;2.80;;
48805;SDS011;34625;47.176;27.548;2022-09-09T10:05:21;4.10;;;3.53;;
48805;SDS011;34625;47.176;27.548;2022-09-09T10:08:10;5.68;;;2.70;;
48805;SDS011;34625;47.176;27.548;2022-09-09T10:16:25;8.88;;;3.50;;
48805;SDS011;34625;47.176;27.548;2022-09-09T10:19:15;7.03;;;3.53;;
48805;SDS011;34625;47.176;27.548;2022-09-09T10:30:12;5.82;;;3.60;;
48805;SDS011;34625;47.176;27.548;2022-09-09T10:41:00;8.05;;;3.60;;
48805;SDS011;34625;47.176;27.548;2022-09-09T10:54:35;5.10;;;3.78;;
48805;SDS011;34625;47.176;27.548;2022-09-09T10:57:25;7.50;;;4.65;;
48805;SDS011;34625;47.176;27.548;2022-09-09T11:03:03;4.53;;;3.78;;
48805;SDS011;34625;47.176;27.548;2022-09-09T11:05:34;8.25;;;3.65;;
48805;SDS011;34625;47.176;27.548;2022-09-09T11:08:09;6.13;;;3.60;;
48805;SDS011;34625;47.176;27.548;2022-09-09T11:13:44;5.35;;;3.28;;
48805;SDS011;34625;47.176;27.548;2022-09-09T11:22:04;7.45;;;4.05;;
48805;SDS011;34625;47.176;27.548;2022-09-09T11:24:40;7.88;;;5.35;;
48805;SDS011;34625;47.176;27.548;2022-09-09T11:27:20;6.45;;;3.53;;
48805;SDS011;34625;47.176;27.548;2022-09-09T11:33:02;4.45;;;4.05;;
48805;SDS011;34625;47.176;27.548;2022-09-09T11:38:26;4.93;;;3.90;;
48805;SDS011;34625;47.176;27.548;2022-09-09T11:46:17;8.02;;;3.50;;
48805;SDS011;34625;47.176;27.548;2022-09-09T11:49:00;5.88;;;3.42;;
48805;SDS011;34625;47.176;27.548;2022-09-09T11:51:28;5.35;;;3.83;;
48805;SDS011;34625;47.176;27.548;2022-09-09T11:58:59;7.22;;;3.85;;
48805;SDS011;34625;47.176;27.548;2022-09-09T12:01:33;7.55;;;4.40;;
48805;SDS011;34625;47.176;27.548;2022-09-09T12:12:07;6.35;;;4.88;;
48805;SDS011;34625;47.176;27.548;2022-09-09T12:14:58;4.57;;;3.97;;
48805;SDS011;34625;47.176;27.548;2022-09-09T12:17:30;4.38;;;3.38;;
48805;SDS011;34625;47.176;27.548;2022-09-09T12:20:01;5.07;;;3.70;;
48805;SDS011;34625;47.176;27.548;2022-09-09T12:23:02;8.90;;;3.88;;
48805;SDS011;34625;47.176;27.548;2022-09-09T12:28:06;4.68;;;3.47;;
48805;SDS011;34625;47.176;27.548;2022-09-09T12:33:16;6.15;;;3.67;;
48805;SDS011;34625;47.176;27.548;2022-09-09T12:35:45;8.65;;;4.50;;
48805;SDS011;34625;47.176;27.548;2022-09-09T12:41:22;6.28;;;3.85;;
48805;SDS011;34625;47.176;27.548;2022-09-09T12:43:50;7.90;;;4.00;;
48805;SDS011;34625;47.176;27.548;2022-09-09T12:46:29;9.90;;;4.53;;
48805;SDS011;34625;47.176;27.548;2022-09-09T12:48:57;5.15;;;4.00;;
48805;SDS011;34625;47.176;27.548;2022-09-09T12:53:56;7.55;;;4.13;;
48805;SDS011;34625;47.176;27.548;2022-09-09T12:56:27;4.57;;;3.53;;
48805;SDS011;34625;47.176;27.548;2022-09-09T12:58:56;5.40;;;3.57;;
48805;SDS011;34625;47.176;27.548;2022-09-09T13:01:28;7.95;;;3.72;;
48805;SDS011;34625;47.176;27.548;2022-09-09T13:03:55;4.47;;;3.20;;
48805;SDS011;34625;47.176;27.548;2022-09-09T13:06:23;4.72;;;3.63;;
48805;SDS011;34625;47.176;27.548;2022-09-09T13:08:51;6.93;;;3.95;;
48805;SDS011;34625;47.176;27.548;2022-09-09T13:11:25;6.20;;;3.80;;
48805;SDS011;34625;47.176;27.548;2022-09-09T13:13:54;8.40;;;3.65;;
48805;SDS011;34625;47.176;27.548;2022-09-09T13:16:23;5.35;;;4.05;;
48805;SDS011;34625;47.176;27.548;2022-09-09T13:19:10;8.95;;;3.90;;
48805;SDS011;34625;47.176;27.548;2022-09-09T13:21:41;8.48;;;3.67;;
48805;SDS011;34625;47.176;27.548;2022-09-09T13:24:27;3.88;;;3.30;;
48805;SDS011;34625;47.176;27.548;2022-09-09T13:26:59;5.40;;;3.53;;
48805;SDS011;34625;47.176;27.548;2022-09-09T13:29:28;4.27;;;3.83;;
48805;SDS011;34625;47.176;27.548;2022-09-09T13:32:18;4.45;;;3.63;;
48805;SDS011;34625;47.176;27.548;2022-09-09T13:34:54;6.40;;;3.67;;
48805;SDS011;34625;47.176;27.548;2022-09-09T13:39:53;7.47;;;3.85;;
48805;SDS011;34625;47.176;27.548;2022-09-09T13:42:26;5.50;;;3.95;;
48805;SDS011;34625;47.176;27.548;2022-09-09T13:44:55;9.43;;;4.20;;
48805;SDS011;34625;47.176;27.548;2022-09-09T13:47:30;8.57;;;4.10;;
48805;SDS011;34625;47.176;27.548;2022-09-09T13:49:58;8.40;;;4.85;;
48805;SDS011;34625;47.176;27.548;2022-09-09T13:52:34;5.88;;;4.03;;
48805;SDS011;34625;47.176;27.548;2022-09-09T13:55:00;7.68;;;4.35;;
48805;SDS011;34625;47.176;27.548;2022-09-09T13:57:26;4.43;;;3.75;;
48805;SDS011;34625;47.176;27.548;2022-09-09T13:59:53;7.50;;;4.45;;
48805;SDS011;34625;47.176;27.548;2022-09-09T14:02:22;5.93;;;3.95;;
48805;SDS011;34625;47.176;27.548;2022-09-09T14:04:49;7.65;;;4.18;;
48805;SDS011;34625;47.176;27.548;2022-09-09T14:07:20;6.88;;;4.10;;
48805;SDS011;34625;47.176;27.548;2022-09-09T14:09:47;9.13;;;4.45;;
48805;SDS011;34625;47.176;27.548;2022-09-09T14:12:15;5.63;;;4.38;;
48805;SDS011;34625;47.176;27.548;2022-09-09T14:14:42;7.55;;;3.58;;
48805;SDS011;34625;47.176;27.548;2022-09-09T14:17:08;4.82;;;3.97;;
48805;SDS011;34625;47.176;27.548;2022-09-09T14:19:34;6.03;;;3.85;;
48805;SDS011;34625;47.176;27.548;2022-09-09T14:22:02;3.65;;;3.22;;
48805;SDS011;34625;47.176;27.548;2022-09-09T14:24:28;7.07;;;3.75;;
48805;SDS011;34625;47.176;27.548;2022-09-09T14:26:54;7.45;;;3.40;;
48805;SDS011;34625;47.176;27.548;2022-09-09T14:29:21;6.95;;;3.53;;
48805;SDS011;34625;47.176;27.548;2022-09-09T14:31:47;5.75;;;3.70;;
48805;SDS011;34625;47.176;27.548;2022-09-09T14:34:13;6.40;;;3.65;;
48805;SDS011;34625;47.176;27.548;2022-09-09T14:36:39;4.45;;;3.50;;
48805;SDS011;34625;47.176;27.548;2022-09-09T14:39:06;7.20;;;3.58;;
48805;SDS011;34625;47.176;27.548;2022-09-09T14:41:33;4.75;;;3.65;;
48805;SDS011;34625;47.176;27.548;2022-09-09T14:43:59;5.97;;;3.88;;
48805;SDS011;34625;47.176;27.548;2022-09-09T14:46:25;6.00;;;3.70;;
48805;SDS011;34625;47.176;27.548;2022-09-09T14:48:52;6.70;;;3.45;;
48805;SDS011;34625;47.176;27.548;2022-09-09T14:51:19;6.45;;;3.60;;
48805;SDS011;34625;47.176;27.548;2022-09-09T14:53:51;9.98;;;4.72;;
48805;SDS011;34625;47.176;27.548;2022-09-09T14:56:21;6.63;;;4.00;;
48805;SDS011;34625;47.176;27.548;2022-09-09T14:58:49;3.80;;;3.42;;
48805;SDS011;34625;47.176;27.548;2022-09-09T15:01:19;5.88;;;3.90;;
48805;SDS011;34625;47.176;27.548;2022-09-09T15:03:55;9.35;;;4.13;;
48805;SDS011;34625;47.176;27.548;2022-09-09T15:06:26;4.60;;;4.18;;
48805;SDS011;34625;47.176;27.548;2022-09-09T15:08:55;8.40;;;4.85;;
48805;SDS011;34625;47.176;27.548;2022-09-09T15:11:23;7.80;;;4.50;;
48805;SDS011;34625;47.176;27.548;2022-09-09T15:13:51;8.93;;;4.18;;
48805;SDS011;34625;47.176;27.548;2022-09-09T15:16:21;4.15;;;3.75;;
48805;SDS011;34625;47.176;27.548;2022-09-09T15:18:54;13.38;;;4.35;;
48805;SDS011;34625;47.176;27.548;2022-09-09T15:21:22;1.70;;;1.60;;
48805;SDS011;34625;47.176;27.548;2022-09-09T15:23:50;2.10;;;1.65;;
48805;SDS011;34625;47.176;27.548;2022-09-09T15:26:17;6.60;;;3.50;;
48805;SDS011;34625;47.176;27.548;2022-09-09T15:28:43;1.92;;;1.83;;
48805;SDS011;34625;47.176;27.548;2022-09-09T15:31:11;4.70;;;2.33;;
48805;SDS011;34625;47.176;27.548;2022-09-09T15:33:51;7.82;;;4.70;;
48805;SDS011;34625;47.176;27.548;2022-09-09T15:36:23;5.47;;;4.30;;
48805;SDS011;34625;47.176;27.548;2022-09-09T15:38:50;11.73;;;4.97;;
48805;SDS011;34625;47.176;27.548;2022-09-09T15:41:18;5.32;;;4.25;;
48805;SDS011;34625;47.176;27.548;2022-09-09T15:43:46;8.23;;;4.70;;
48805;SDS011;34625;47.176;27.548;2022-09-09T15:49:04;6.72;;;4.90;;
48805;SDS011;34625;47.176;27.548;2022-09-09T15:51:34;6.70;;;4.60;;
48805;SDS011;34625;47.176;27.548;2022-09-09T15:54:00;6.45;;;4.32;;
48805;SDS011;34625;47.176;27.548;2022-09-09T15:56:27;8.82;;;5.15;;
48805;SDS011;34625;47.176;27.548;2022-09-09T15:58:56;7.10;;;4.38;;
48805;SDS011;34625;47.176;27.548;2022-09-09T16:01:23;5.10;;;4.47;;
48805;SDS011;34625;47.176;27.548;2022-09-09T16:03:50;5.70;;;4.68;;
48805;SDS011;34625;47.176;27.548;2022-09-09T16:06:18;11.48;;;5.20;;
48805;SDS011;34625;47.176;27.548;2022-09-09T16:08:47;8.80;;;4.80;;
48805;SDS011;34625;47.176;27.548;2022-09-09T16:11:16;9.65;;;5.43;;
48805;SDS011;34625;47.176;27.548;2022-09-09T16:13:45;5.22;;;4.13;;
48805;SDS011;34625;47.176;27.548;2022-09-09T16:16:14;5.57;;;4.85;;
48805;SDS011;34625;47.176;27.548;2022-09-09T16:18:45;10.63;;;5.50;;
48805;SDS011;34625;47.176;27.548;2022-09-09T16:21:17;10.18;;;6.20;;
48805;SDS011;34625;47.176;27.548;2022-09-09T16:23:46;7.50;;;5.88;;
48805;SDS011;34625;47.176;27.548;2022-09-09T16:26:15;12.30;;;7.18;;
48805;SDS011;34625;47.176;27.548;2022-09-09T16:28:42;12.82;;;6.10;;
48805;SDS011;34625;47.176;27.548;2022-09-09T16:31:10;15.10;;;6.43;;
48805;SDS011;34625;47.176;27.548;2022-09-09T16:33:39;17.00;;;7.95;;
48805;SDS011;34625;47.176;27.548;2022-09-09T16:36:10;10.90;;;6.78;;
48805;SDS011;34625;47.176;27.548;2022-09-09T16:38:47;15.90;;;9.70;;
48805;SDS011;34625;47.176;27.548;2022-09-09T16:41:17;20.88;;;7.85;;
48805;SDS011;34625;47.176;27.548;2022-09-09T16:43:44;14.38;;;7.85;;
48805;SDS011;34625;47.176;27.548;2022-09-09T16:46:14;18.58;;;9.45;;
48805;SDS011;34625;47.176;27.548;2022-09-09T16:48:42;23.00;;;12.27;;
48805;SDS011;34625;47.176;27.548;2022-09-09T16:53:42;23.00;;;12.45;;
48805;SDS011;34625;47.176;27.548;2022-09-09T16:56:12;20.02;;;9.52;;
48805;SDS011;34625;47.176;27.548;2022-09-09T16:58:48;14.07;;;8.30;;
48805;SDS011;34625;47.176;27.548;2022-09-09T17:01:15;10.90;;;7.35;;
48805;SDS011;34625;47.176;27.548;2022-09-09T17:03:41;8.35;;;6.55;;
48805;SDS011;34625;47.176;27.548;2022-09-09T17:06:11;11.43;;;7.25;;
48805;SDS011;34625;47.176;27.548;2022-09-09T17:08:38;10.57;;;7.20;;
48805;SDS011;34625;47.176;27.548;2022-09-09T17:11:13;9.40;;;6.70;;
48805;SDS011;34625;47.176;27.548;2022-09-09T17:13:42;7.68;;;6.60;;
48805;SDS011;34625;47.176;27.548;2022-09-09T17:16:09;8.45;;;6.43;;
48805;SDS011;34625;47.176;27.548;2022-09-09T17:18:35;8.95;;;5.93;;
48805;SDS011;34625;47.176;27.548;2022-09-09T17:21:06;11.43;;;5.97;;
48805;SDS011;34625;47.176;27.548;2022-09-09T17:23:34;8.68;;;5.25;;
48805;SDS011;34625;47.176;27.548;2022-09-09T17:26:06;8.70;;;6.25;;
48805;SDS011;34625;47.176;27.548;2022-09-09T17:28:36;9.35;;;5.40;;
48805;SDS011;34625;47.176;27.548;2022-09-09T17:31:04;9.40;;;5.65;;
48805;SDS011;34625;47.176;27.548;2022-09-09T17:33:36;8.30;;;5.65;;
48805;SDS011;34625;47.176;27.548;2022-09-09T17:36:07;11.18;;;5.90;;